Time;durP1;ratioP1;P1;durP2;ratioP2;P2;SDS_P1;SDS_P2;PMS_P1;PMS_P2;Temp;Humidity;BMP_temperature;BMP_pressure;BME280_temperature;BME280_humidity;BME280_pressure;Samples;Min_cycle;Max_cycle;Signal;HPM_P1;HPM_P2
2022/10/13 00:04:22;;;;;;;17.00;11.10;;;21.50;62.00;;;;;;214957;1299;24220;-56
2022/10/13 00:09:25;;;;;;;14.20;9.70;;;21.50;61.80;;;;;;214929;1292;26506;-56
2022/10/13 00:14:30;;;;;;;15.50;9.70;;;21.50;61.90;;;;;;215011;1282;22473;-57
2022/10/13 00:19:34;;;;;;;20.30;10.60;;;21.50;62.30;;;;;;214907;1291;24313;-56
2022/10/13 00:24:37;;;;;;;21.80;11.40;;;21.50;61.90;;;;;;214699;1284;24435;-57
2022/10/13 00:29:42;;;;;;;15.10;9.50;;;21.50;61.90;;;;;;214856;1282;24244;-56
2022/10/13 00:34:45;;;;;;;18.90;10.40;;;21.50;62.00;;;;;;214700;1292;22488;-59
2022/10/13 00:39:49;;;;;;;16.20;10.20;;;21.50;62.00;;;;;;214957;1292;25333;-57
2022/10/13 00:45:00;;;;;;;17.00;10.00;;;21.50;62.00;;;;;;215043;1281;24264;-57
2022/10/13 00:50:08;;;;;;;13.20;9.80;;;21.40;62.00;;;;;;214788;1289;25658;-60
2022/10/13 00:55:16;;;;;;;13.80;9.20;;;21.40;62.10;;;;;;214853;1284;24360;-55
2022/10/13 01:00:21;;;;;;;14.40;10.30;;;21.40;62.10;;;;;;214972;1297;25284;-56
2022/10/13 01:05:25;;;;;;;15.40;8.80;;;21.40;62.10;;;;;;215068;1291;22469;-57
2022/10/13 01:11:00;;;;;;;16.50;9.50;;;21.40;62.20;;;;;;214925;1296;24256;-56
2022/10/13 01:16:35;;;;;;;18.70;9.90;;;21.50;62.10;;;;;;214953;1297;23887;-57
2022/10/13 01:21:50;;;;;;;13.70;9.80;;;21.40;62.10;;;;;;214995;1284;24304;-55
2022/10/13 01:27:03;;;;;;;13.20;9.00;;;21.40;62.10;;;;;;214994;1282;22462;-60
2022/10/13 01:32:10;;;;;;;16.50;9.40;;;21.50;61.80;;;;;;214988;1285;24318;-55
2022/10/13 01:37:46;;;;;;;14.20;8.00;;;21.40;62.00;;;;;;214839;1296;25274;-59
2022/10/13 01:43:00;;;;;;;13.50;8.00;;;21.40;61.90;;;;;;214994;1295;22469;-57
2022/10/13 01:48:05;;;;;;;13.90;8.90;;;21.40;62.50;;;;;;215011;1282;25301;-57
2022/10/13 01:53:17;;;;;;;14.10;8.20;;;21.40;62.10;;;;;;214911;1294;22576;-55
2022/10/13 01:58:23;;;;;;;13.10;8.60;;;21.40;62.10;;;;;;223035;1293;22964;-56
2022/10/13 02:03:48;;;;;;;14.00;8.40;;;21.40;62.10;;;;;;222901;1281;22127;-55
2022/10/13 02:09:14;;;;;;;14.20;8.60;;;21.40;62.00;;;;;;216295;1284;22470;-55
2022/10/13 02:14:25;;;;;;;12.00;7.10;;;21.40;62.10;;;;;;215044;1285;22463;-57
2022/10/13 02:19:32;;;;;;;13.00;7.70;;;21.40;62.10;;;;;;215217;1300;22473;-56
2022/10/13 02:24:36;;;;;;;13.70;7.90;;;21.40;62.10;;;;;;215085;1275;24208;-58
2022/10/13 02:29:57;;;;;;;12.50;8.60;;;21.30;62.10;;;;;;215079;1291;22462;-56
2022/10/13 02:35:04;;;;;;;13.20;7.90;;;21.40;62.10;;;;;;215077;1297;22665;-58
2022/10/13 02:40:09;;;;;;;12.00;8.20;;;21.40;62.10;;;;;;214953;1296;22459;-56
2022/10/13 02:45:13;;;;;;;13.70;9.00;;;21.40;62.20;;;;;;215079;1285;22537;-55
2022/10/13 02:50:17;;;;;;;14.80;7.80;;;21.30;62.20;;;;;;214863;1303;24011;-55
2022/10/13 02:55:21;;;;;;;13.30;7.60;;;21.40;62.20;;;;;;214929;1281;22459;-55
2022/10/13 03:00:29;;;;;;;11.80;7.70;;;21.30;62.60;;;;;;215149;1293;25294;-56
2022/10/13 03:05:33;;;;;;;11.00;7.00;;;21.30;62.20;;;;;;214980;1294;22573;-55
2022/10/13 03:10:36;;;;;;;12.90;7.40;;;21.30;62.30;;;;;;214999;1283;24213;-58
2022/10/13 03:15:40;;;;;;;15.60;8.40;;;21.30;62.50;;;;;;214806;1284;23200;-57
2022/10/13 03:20:43;;;;;;;14.60;7.60;;;21.30;62.30;;;;;;214933;1285;22513;-59
2022/10/13 03:25:49;;;;;;;10.40;6.90;;;21.30;62.20;;;;;;215071;1295;22458;-57
2022/10/13 03:31:05;;;;;;;10.10;7.00;;;21.30;62.30;;;;;;214642;1288;22473;-56
2022/10/13 03:36:13;;;;;;;10.50;6.80;;;21.30;62.30;;;;;;214967;1289;25408;-54
2022/10/13 03:41:21;;;;;;;10.00;6.90;;;21.30;62.40;;;;;;214970;1287;22468;-57
2022/10/13 03:46:27;;;;;;;12.20;8.30;;;21.30;62.70;;;;;;215111;1294;25365;-58
2022/10/13 03:51:35;;;;;;;13.50;7.40;;;21.30;62.30;;;;;;214799;1291;22469;-59
2022/10/13 03:56:39;;;;;;;10.30;6.70;;;21.30;62.30;;;;;;214926;1282;25524;-56
2022/10/13 04:01:43;;;;;;;16.10;6.20;;;21.30;62.30;;;;;;214986;1292;25356;-54
2022/10/13 04:06:48;;;;;;;12.70;6.60;;;21.30;62.20;;;;;;215054;1285;22564;-56
2022/10/13 04:11:52;;;;;;;12.40;7.00;;;21.30;62.00;;;;;;215090;1285;24310;-56
2022/10/13 04:16:56;;;;;;;12.50;7.00;;;21.30;62.30;;;;;;215066;1294;25525;-55
2022/10/13 04:22:00;;;;;;;9.00;5.90;;;21.20;62.30;;;;;;215008;1280;23318;-56
2022/10/13 04:27:03;;;;;;;10.20;6.50;;;21.30;62.30;;;;;;214776;1285;22461;-58
2022/10/13 04:32:07;;;;;;;10.20;6.90;;;21.20;62.30;;;;;;215010;1284;25352;-56
2022/10/13 04:37:10;;;;;;;9.60;6.50;;;21.20;62.30;;;;;;215082;1281;22481;-55
2022/10/13 04:42:13;;;;;;;12.10;6.40;;;21.20;62.70;;;;;;214977;1291;23068;-59
2022/10/13 04:47:17;;;;;;;12.30;6.90;;;21.20;62.30;;;;;;214996;1291;22588;-54
2022/10/13 04:52:20;;;;;;;10.50;6.10;;;21.30;62.40;;;;;;214892;1277;25495;-56
2022/10/13 04:57:25;;;;;;;10.30;6.30;;;21.20;62.50;;;;;;215000;1284;22471;-59
2022/10/13 05:02:28;;;;;;;11.80;6.60;;;21.20;62.70;;;;;;214891;1294;24235;-55
2022/10/13 05:07:34;;;;;;;11.40;6.60;;;21.20;62.50;;;;;;215010;1284;22695;-57
2022/10/13 05:12:37;;;;;;;13.10;7.10;;;21.20;62.50;;;;;;215065;1288;22462;-56
2022/10/13 05:17:41;;;;;;;16.30;6.90;;;21.20;62.30;;;;;;215024;1285;22500;-53
2022/10/13 05:22:44;;;;;;;12.30;5.80;;;21.20;62.60;;;;;;215023;1281;24231;-56
2022/10/13 05:27:48;;;;;;;12.00;6.50;;;21.20;62.30;;;;;;214855;1285;22481;-58
2022/10/13 05:32:51;;;;;;;10.70;6.10;;;21.20;62.40;;;;;;214997;1295;23879;-56
2022/10/13 05:37:58;;;;;;;10.80;7.00;;;21.20;62.50;;;;;;215008;1300;22503;-56
2022/10/13 05:43:03;;;;;;;15.00;6.80;;;21.10;62.40;;;;;;214983;1282;24199;-55
2022/10/13 05:48:06;;;;;;;10.40;5.60;;;21.20;62.30;;;;;;215083;1294;22482;-55
2022/10/13 05:53:10;;;;;;;12.30;6.70;;;21.20;62.50;;;;;;215091;1295;24041;-55
2022/10/13 05:58:13;;;;;;;10.50;6.10;;;21.20;62.30;;;;;;214924;1277;25508;-55
2022/10/13 06:03:21;;;;;;;8.70;5.60;;;21.20;62.60;;;;;;214878;1281;22460;-55
2022/10/13 06:08:24;;;;;;;10.80;5.90;;;21.20;62.20;;;;;;215060;1300;190338;-53
2022/10/13 06:13:28;;;;;;;9.10;5.90;;;21.20;62.60;;;;;;214977;1281;22472;-57
2022/10/13 06:18:32;;;;;;;9.60;5.80;;;21.10;63.00;;;;;;215044;1295;24311;-56
2022/10/13 06:23:35;;;;;;;9.50;5.40;;;21.10;62.70;;;;;;215022;1294;22508;-57
2022/10/13 06:28:39;;;;;;;11.20;6.20;;;21.10;62.60;;;;;;214991;1282;23317;-56
2022/10/13 06:33:44;;;;;;;10.10;6.10;;;21.10;62.80;;;;;;214956;1281;22522;-57
2022/10/13 06:38:48;;;;;;;8.30;5.70;;;21.20;62.80;;;;;;214951;1284;22490;-54
2022/10/13 06:43:53;;;;;;;9.70;6.20;;;21.10;63.00;;;;;;214977;1278;22518;-54
2022/10/13 06:48:56;;;;;;;10.70;6.10;;;21.10;62.70;;;;;;214933;1293;22459;-53
2022/10/13 06:54:01;;;;;;;17.40;7.10;;;21.10;62.80;;;;;;214923;1284;22643;-58
2022/10/13 06:59:06;;;;;;;8.80;5.60;;;21.10;62.70;;;;;;215062;1287;22457;-59
2022/10/13 07:04:10;;;;;;;10.30;6.20;;;21.10;62.80;;;;;;215000;1281;22585;-57
2022/10/13 07:09:13;;;;;;;9.50;6.30;;;21.20;63.20;;;;;;215104;1275;25505;-57
2022/10/13 07:14:17;;;;;;;11.90;6.30;;;21.20;62.80;;;;;;215068;1281;22471;-55
2022/10/13 07:19:21;;;;;;;11.30;6.30;;;21.20;63.30;;;;;;215071;1300;24177;-55
2022/10/13 07:24:25;;;;;;;11.30;6.00;;;21.20;62.80;;;;;;214902;1295;25498;-56
2022/10/13 07:29:28;;;;;;;10.20;6.10;;;21.30;62.80;;;;;;215055;1286;25282;-58
2022/10/13 07:34:32;;;;;;;9.80;6.20;;;21.30;62.00;;;;;;215044;1284;24380;-56
2022/10/13 07:39:35;;;;;;;11.60;6.50;;;21.30;62.00;;;;;;215185;1296;24333;-59
2022/10/13 07:44:39;;;;;;;22.90;7.40;;;21.40;62.00;;;;;;214938;1287;24316;-60
2022/10/13 07:49:42;;;;;;;14.70;7.30;;;21.50;67.00;;;;;;214756;1300;25316;-57
2022/10/13 07:54:46;;;;;;;13.20;7.10;;;21.70;64.80;;;;;;214945;1281;22457;-59
2022/10/13 07:59:52;;;;;;;12.10;6.90;;;21.80;65.00;;;;;;215023;1292;24221;-57
2022/10/13 08:04:59;;;;;;;14.30;7.40;;;21.90;65.20;;;;;;215053;1286;22645;-59
2022/10/13 08:10:08;;;;;;;11.50;6.80;;;21.90;65.40;;;;;;214770;1283;23072;-57
2022/10/13 08:15:13;;;;;;;12.30;7.10;;;22.00;65.30;;;;;;215101;1278;25536;-58
2022/10/13 08:20:16;;;;;;;14.90;7.10;;;22.00;64.10;;;;;;214989;1295;22715;-61
2022/10/13 08:25:19;;;;;;;10.60;6.50;;;22.00;64.10;;;;;;214760;1295;22735;-61
2022/10/13 08:30:24;;;;;;;14.70;7.30;;;22.00;63.90;;;;;;214825;1285;24410;-58
2022/10/13 08:35:28;;;;;;;12.70;7.00;;;22.00;63.80;;;;;;214818;1284;22507;-61
2022/10/13 08:40:38;;;;;;;16.00;7.30;;;22.00;64.20;;;;;;214810;1287;24219;-63
2022/10/13 08:45:44;;;;;;;14.00;7.40;;;22.00;63.40;;;;;;214572;1293;22463;-61
2022/10/13 08:50:53;;;;;;;15.80;7.50;;;22.00;63.30;;;;;;214847;1288;24181;-61
2022/10/13 08:56:04;;;;;;;18.60;8.40;;;22.00;63.10;;;;;;214797;1288;22476;-59
2022/10/13 09:01:07;;;;;;;23.40;8.00;;;22.00;63.40;;;;;;214763;1294;22509;-60
2022/10/13 09:06:30;;;;;;;17.90;8.00;;;22.10;62.80;;;;;;214852;1291;25211;-58
2022/10/13 09:11:37;;;;;;;15.00;7.90;;;22.10;62.60;;;;;;214865;1285;23698;-60
2022/10/13 09:16:43;;;;;;;21.90;8.80;;;22.20;62.30;;;;;;214627;1300;25357;-60
2022/10/13 09:21:49;;;;;;;16.00;7.70;;;22.30;62.30;;;;;;214710;1287;22472;-60
2022/10/13 09:27:12;;;;;;;18.40;8.10;;;22.30;61.90;;;;;;214769;1295;24209;-60
2022/10/13 09:32:19;;;;;;;11.70;6.70;;;22.40;61.90;;;;;;214965;1285;25198;-61
2022/10/13 09:37:25;;;;;;;13.60;7.20;;;22.30;61.90;;;;;;214818;1282;22562;-60
2022/10/13 09:42:30;;;;;;;13.60;7.80;;;22.40;61.50;;;;;;215077;1294;23882;-62
2022/10/13 09:47:38;;;;;;;12.00;7.10;;;22.40;61.50;;;;;;214741;1286;22465;-60
2022/10/13 09:52:44;;;;;;;11.10;6.70;;;22.50;61.30;;;;;;214788;1296;22529;-60
2022/10/13 09:57:50;;;;;;;9.80;6.30;;;22.50;61.10;;;;;;214845;1285;22511;-57
2022/10/13 10:03:02;;;;;;;17.70;7.70;;;22.60;61.00;;;;;;214806;1300;24235;-60
2022/10/13 10:08:35;;;;;;;10.70;6.30;;;22.60;60.80;;;;;;214774;1296;25348;-57
2022/10/13 10:14:29;;;;;;;9.30;6.60;;;22.70;60.60;;;;;;214915;1291;22525;-60
2022/10/13 10:19:45;;;;;;;13.20;6.80;;;22.70;60.00;;;;;;214818;1287;22467;-59
2022/10/13 10:25:14;;;;;;;15.40;6.80;;;22.80;60.30;;;;;;214731;1296;22565;-58
2022/10/13 10:30:21;;;;;;;13.80;6.40;;;23.10;59.20;;;;;;214404;1296;24257;-61
2022/10/13 10:35:38;;;;;;;14.10;7.00;;;23.00;59.70;;;;;;214531;1292;25369;-62
2022/10/13 10:41:06;;;;;;;12.50;6.50;;;23.00;59.80;;;;;;214839;1288;22638;-58
2022/10/13 10:46:15;;;;;;;10.70;6.50;;;23.10;59.70;;;;;;214876;1292;25204;-54
2022/10/13 10:51:28;;;;;;;11.00;7.20;;;23.10;59.70;;;;;;214978;1299;23884;-60
2022/10/13 10:56:51;;;;;;;14.10;6.60;;;23.20;59.50;;;;;;215071;1287;22479;-59
2022/10/13 11:01:58;;;;;;;14.40;6.50;;;23.30;59.60;;;;;;215131;1300;22536;-59
2022/10/13 11:07:03;;;;;;;19.30;8.10;;;23.30;59.10;;;;;;214673;1289;22537;-58
2022/10/13 11:12:18;;;;;;;19.40;7.80;;;23.20;59.40;;;;;;216055;1293;26461;-60
2022/10/13 11:17:31;;;;;;;10.00;6.40;;;23.30;58.90;;;;;;214819;1284;25640;-59
2022/10/13 11:22:34;;;;;;;14.00;7.10;;;23.30;58.90;;;;;;214833;1295;23071;-59
2022/10/13 11:27:43;;;;;;;14.50;6.80;;;23.30;59.00;;;;;;214627;1287;23686;-59
2022/10/13 11:32:55;;;;;;;10.50;6.20;;;23.30;58.80;;;;;;214747;1300;24256;-60
2022/10/13 11:38:03;;;;;;;9.00;5.20;;;23.30;58.60;;;;;;214813;1284;22517;-59
2022/10/13 11:43:19;;;;;;;9.20;6.10;;;23.30;58.70;;;;;;214945;1293;25468;-56
2022/10/13 11:48:25;;;;;;;11.50;6.10;;;23.40;58.60;;;;;;214766;1287;22532;-59
2022/10/13 11:53:50;;;;;;;9.80;5.80;;;23.40;58.50;;;;;;214786;1300;24354;-59
2022/10/13 11:58:53;;;;;;;11.90;5.90;;;23.40;58.60;;;;;;214788;1287;24231;-55
2022/10/13 12:03:57;;;;;;;14.60;7.10;;;23.40;58.50;;;;;;214612;1301;24346;-59
2022/10/13 12:09:13;;;;;;;11.10;6.00;;;23.40;58.40;;;;;;214789;1288;25494;-58
2022/10/13 12:14:24;;;;;;;12.10;5.60;;;23.40;58.30;;;;;;214790;1284;22496;-58
2022/10/13 12:19:30;;;;;;;10.20;5.60;;;23.50;58.20;;;;;;214821;1290;24131;-58
2022/10/13 12:24:36;;;;;;;12.40;6.30;;;23.50;58.10;;;;;;214681;1298;22956;-59
2022/10/13 12:29:48;;;;;;;8.70;5.50;;;23.50;58.00;;;;;;214479;1300;22457;-60
2022/10/13 12:34:52;;;;;;;7.80;5.00;;;23.50;58.00;;;;;;214995;1295;24027;-58
2022/10/13 12:39:59;;;;;;;9.40;4.80;;;23.50;58.10;;;;;;215088;1297;22696;-58
2022/10/13 12:45:04;;;;;;;16.40;6.70;;;23.50;57.90;;;;;;214896;1294;23883;-59
2022/10/13 12:50:21;;;;;;;10.80;5.60;;;23.60;57.90;;;;;;214753;1301;27131;-59
2022/10/13 12:55:24;;;;;;;10.80;5.90;;;23.60;57.80;;;;;;214819;1285;22468;-58
2022/10/13 13:00:31;;;;;;;9.40;5.10;;;23.60;57.80;;;;;;214860;1287;22471;-59
2022/10/13 13:05:42;;;;;;;8.80;5.20;;;23.60;57.80;;;;;;214461;1301;22764;-58
2022/10/13 13:10:57;;;;;;;10.40;5.40;;;23.50;57.80;;;;;;214654;1300;24405;-58
2022/10/13 13:16:14;;;;;;;8.40;5.30;;;23.60;57.90;;;;;;214776;1294;23853;-58
2022/10/13 13:21:21;;;;;;;7.40;4.80;;;23.60;57.70;;;;;;214774;1286;24257;-60
2022/10/13 13:26:24;;;;;;;10.40;5.00;;;23.60;57.50;;;;;;214668;1286;22465;-59
2022/10/13 13:31:29;;;;;;;8.60;5.40;;;23.60;57.60;;;;;;214650;1284;24919;-58
2022/10/13 13:36:32;;;;;;;7.40;4.60;;;23.60;57.50;;;;;;214785;1283;22507;-58
2022/10/13 13:41:36;;;;;;;7.90;4.70;;;23.60;57.60;;;;;;214785;1289;22469;-59
2022/10/13 13:46:45;;;;;;;14.20;5.50;;;23.60;57.70;;;;;;214751;1301;27633;-59
2022/10/13 13:51:48;;;;;;;7.50;4.50;;;23.60;57.50;;;;;;214980;1300;25488;-59
2022/10/13 13:56:52;;;;;;;6.90;4.60;;;23.60;57.50;;;;;;214694;1290;24187;-57
2022/10/13 14:02:01;;;;;;;8.00;4.90;;;23.50;57.50;;;;;;214822;1284;22671;-59
2022/10/13 14:07:05;;;;;;;7.70;4.70;;;23.50;57.60;;;;;;214867;1296;22505;-59
2022/10/13 14:12:09;;;;;;;8.20;5.30;;;23.50;57.60;;;;;;214726;1300;25436;-55
2022/10/13 14:17:18;;;;;;;7.10;4.60;;;23.50;57.60;;;;;;214796;1298;25601;-60
2022/10/13 14:22:22;;;;;;;9.70;5.40;;;23.50;57.60;;;;;;214966;1291;22471;-57
2022/10/13 14:27:26;;;;;;;8.50;5.20;;;23.40;57.90;;;;;;215013;1291;24231;-58
2022/10/13 14:32:36;;;;;;;9.60;5.30;;;23.40;57.60;;;;;;214888;1293;22477;-56
2022/10/13 14:37:42;;;;;;;8.70;5.10;;;23.40;58.10;;;;;;214738;1300;24249;-58
2022/10/13 14:42:45;;;;;;;12.20;5.00;;;23.30;57.70;;;;;;214831;1300;26521;-58
2022/10/13 14:47:52;;;;;;;8.20;4.90;;;23.30;57.80;;;;;;214976;1282;22660;-58
2022/10/13 14:52:58;;;;;;;6.50;4.30;;;23.20;58.10;;;;;;214958;1286;22570;-59
2022/10/13 14:58:03;;;;;;;8.80;5.00;;;23.20;58.20;;;;;;214794;1291;25585;-58
2022/10/13 15:03:06;;;;;;;6.90;4.40;;;23.10;57.80;;;;;;214878;1286;24219;-58
2022/10/13 15:08:10;;;;;;;9.20;5.00;;;23.10;57.90;;;;;;214436;1295;22492;-57
2022/10/13 15:13:13;;;;;;;11.60;5.00;;;23.10;58.00;;;;;;214529;1298;28140;-58
2022/10/13 15:18:27;;;;;;;9.10;5.00;;;23.00;58.00;;;;;;214885;1287;22503;-55
2022/10/13 15:23:36;;;;;;;8.30;4.90;;;23.00;57.50;;;;;;214829;1275;22463;-59
2022/10/13 15:28:44;;;;;;;12.70;5.30;;;23.00;58.30;;;;;;214700;1294;25552;-59
2022/10/13 15:33:53;;;;;;;12.00;5.60;;;23.00;58.00;;;;;;215157;1284;24211;-60
2022/10/13 15:38:58;;;;;;;11.90;5.00;;;22.90;57.90;;;;;;215021;1282;22486;-58
2022/10/13 15:44:02;;;;;;;9.60;4.00;;;22.90;58.50;;;;;;214825;1286;22470;-59
2022/10/13 15:49:13;;;;;;;11.90;4.90;;;22.90;58.20;;;;;;214845;1286;22454;-58
2022/10/13 15:54:21;;;;;;;11.90;4.80;;;22.90;58.80;;;;;;214597;1296;22531;-58
2022/10/13 15:59:29;;;;;;;29.90;6.80;;;22.90;58.70;;;;;;215025;1291;25491;-58
2022/10/13 16:04:36;;;;;;;11.90;4.40;;;22.90;59.60;;;;;;214891;1282;25593;-59
2022/10/13 16:09:41;;;;;;;17.00;4.70;;;22.80;60.00;;;;;;214698;1280;24261;-58
2022/10/13 16:14:45;;;;;;;14.90;5.20;;;22.80;60.20;;;;;;214779;1295;22669;-57
2022/10/13 16:19:52;;;;;;;13.40;5.20;;;22.70;59.90;;;;;;214732;1296;25564;-59
2022/10/13 16:24:56;;;;;;;11.30;5.60;;;22.70;59.80;;;;;;214671;1281;22459;-57
2022/10/13 16:30:04;;;;;;;13.90;6.00;;;22.70;60.20;;;;;;214686;1286;25293;-58
2022/10/13 16:35:08;;;;;;;19.80;6.30;;;22.70;62.10;;;;;;214960;1281;22629;-55
2022/10/13 16:40:25;;;;;;;16.20;6.50;;;22.60;60.70;;;;;;215026;1295;22540;-62
2022/10/13 16:45:39;;;;;;;10.80;5.20;;;22.60;60.30;;;;;;214765;1286;22486;-62
2022/10/13 16:51:24;;;;;;;10.20;4.90;;;22.60;60.40;;;;;;214638;1285;22578;-61
2022/10/13 16:56:45;;;;;;;11.60;5.70;;;22.50;60.40;;;;;;214537;1286;22648;-60
2022/10/13 17:02:03;;;;;;;9.60;5.40;;;22.50;60.80;;;;;;214350;1284;22453;-60
2022/10/13 17:07:15;;;;;;;15.50;6.60;;;22.50;60.70;;;;;;214632;1281;23021;-62
2022/10/13 17:12:26;;;;;;;16.20;6.10;;;22.60;61.30;;;;;;214796;1298;22478;-60
2022/10/13 17:17:33;;;;;;;;;;;22.60;61.10;;;;;;214789;1292;22572;-61
2022/10/13 17:22:43;;;;;;;10.90;5.80;;;22.60;60.80;;;;;;214910;1286;25299;-59
2022/10/13 17:27:57;;;;;;;10.00;6.20;;;22.60;60.80;;;;;;214927;1283;22463;-60
2022/10/13 17:33:12;;;;;;;15.00;7.70;;;22.60;60.90;;;;;;214778;1291;25438;-61
2022/10/13 17:38:36;;;;;;;15.60;6.40;;;22.70;61.00;;;;;;214685;1289;22512;-60
2022/10/13 17:43:41;;;;;;;10.30;5.80;;;22.60;60.70;;;;;;214938;1282;22594;-57
2022/10/13 17:48:49;;;;;;;19.20;7.40;;;22.50;62.70;;;;;;214684;1300;25487;-54
2022/10/13 17:53:58;;;;;;;14.20;6.90;;;22.60;61.50;;;;;;214896;1298;24230;-58
2022/10/13 17:59:11;;;;;;;15.20;7.10;;;22.60;61.70;;;;;;214781;1289;24342;-61
2022/10/13 18:04:31;;;;;;;21.50;7.30;;;22.60;62.20;;;;;;214916;1282;24684;-59
2022/10/13 18:09:35;;;;;;;21.00;8.10;;;22.60;62.40;;;;;;214412;1291;328515;-63
2022/10/13 18:14:40;;;;;;;16.40;8.40;;;22.60;62.50;;;;;;214894;1282;24266;-60
2022/10/13 18:19:52;;;;;;;22.80;8.70;;;22.60;62.70;;;;;;214843;1286;22673;-62
2022/10/13 18:24:58;;;;;;;25.30;9.20;;;22.60;62.70;;;;;;214903;1282;23209;-61
2022/10/13 18:30:06;;;;;;;15.20;7.90;;;22.60;62.60;;;;;;214859;1281;22503;-61
2022/10/13 18:35:12;;;;;;;18.40;8.60;;;22.60;62.90;;;;;;214641;1278;25215;-60
2022/10/13 18:40:15;;;;;;;16.40;8.70;;;22.60;63.30;;;;;;214966;1286;22504;-62
2022/10/13 18:45:21;;;;;;;17.90;8.70;;;22.50;63.40;;;;;;214875;1288;25533;-60
2022/10/13 18:50:24;;;;;;;16.30;8.60;;;22.50;63.50;;;;;;214953;1282;24288;-59
2022/10/13 18:55:28;;;;;;;17.60;9.30;;;22.50;63.50;;;;;;214909;1285;23015;-59
2022/10/13 19:00:31;;;;;;;23.80;9.20;;;22.50;63.50;;;;;;214959;1286;24240;-56
2022/10/13 19:05:38;;;;;;;19.80;8.70;;;22.60;63.90;;;;;;214808;1281;24192;-60
2022/10/13 19:10:45;;;;;;;19.90;9.70;;;22.60;64.10;;;;;;214920;1290;22455;-56
2022/10/13 19:15:58;;;;;;;16.60;8.90;;;22.60;64.40;;;;;;214724;1281;22477;-59
2022/10/13 19:21:05;;;;;;;18.60;10.10;;;22.60;64.30;;;;;;215045;1293;22453;-60
2022/10/13 19:26:17;;;;;;;22.20;10.20;;;22.60;65.10;;;;;;214903;1284;22943;-59
2022/10/13 19:31:24;;;;;;;26.90;10.50;;;22.60;64.40;;;;;;214966;1284;23702;-59
2022/10/13 19:36:36;;;;;;;21.00;10.90;;;22.60;64.40;;;;;;214816;1286;22551;-56
2022/10/13 19:41:43;;;;;;;23.90;10.80;;;22.50;64.10;;;;;;215134;1300;24391;-58
2022/10/13 19:46:51;;;;;;;21.90;10.60;;;22.50;64.40;;;;;;214649;1275;22837;-58
2022/10/13 19:51:57;;;;;;;23.00;11.00;;;22.50;64.50;;;;;;214855;1299;25236;-58
2022/10/13 19:57:02;;;;;;;18.60;10.70;;;22.50;64.40;;;;;;215165;1280;22457;-58
2022/10/13 20:02:17;;;;;;;27.60;12.50;;;22.40;64.30;;;;;;214999;1288;22989;-62
2022/10/13 20:07:21;;;;;;;18.70;12.10;;;22.40;64.40;;;;;;214992;1286;22541;-61
2022/10/13 20:12:31;;;;;;;21.90;11.70;;;22.30;64.00;;;;;;215056;1285;25305;-60
2022/10/13 20:17:34;;;;;;;21.00;12.80;;;22.20;63.80;;;;;;215039;1283;25248;-60
2022/10/13 20:22:41;;;;;;;20.50;12.00;;;22.20;64.10;;;;;;215134;1286;25881;-59
2022/10/13 20:27:46;;;;;;;18.10;11.80;;;22.10;64.10;;;;;;215085;1295;22537;-58
2022/10/13 20:32:53;;;;;;;22.90;12.50;;;22.10;64.30;;;;;;214951;1282;22462;-61
2022/10/13 20:37:58;;;;;;;20.60;12.10;;;22.10;63.70;;;;;;214992;1282;22457;-60
2022/10/13 20:43:08;;;;;;;18.20;11.20;;;22.10;64.30;;;;;;214974;1278;24210;-62
2022/10/13 20:48:13;;;;;;;24.40;12.60;;;22.00;64.60;;;;;;215067;1275;22475;-60
2022/10/13 20:53:23;;;;;;;21.60;12.30;;;22.00;65.10;;;;;;214968;1281;22467;-60
2022/10/13 20:58:50;;;;;;;17.90;11.50;;;22.00;64.60;;;;;;215165;1293;25230;-61
2022/10/13 21:03:54;;;;;;;22.10;11.70;;;22.10;67.50;;;;;;214897;1287;24760;-62
2022/10/13 21:08:58;;;;;;;21.40;11.20;;;22.20;67.60;;;;;;214947;1289;25443;-60
2022/10/13 21:14:05;;;;;;;21.90;11.60;;;22.20;67.60;;;;;;215003;1277;25317;-59
2022/10/13 21:19:11;;;;;;;17.30;11.40;;;22.20;67.50;;;;;;215055;1282;23886;-62
2022/10/13 21:24:16;;;;;;;19.00;11.80;;;22.20;67.50;;;;;;215077;1275;23247;-60
2022/10/13 21:29:29;;;;;;;21.30;11.90;;;22.10;67.30;;;;;;214707;1298;23226;-61
2022/10/13 21:34:33;;;;;;;18.60;11.30;;;22.10;67.20;;;;;;215037;1293;25411;-60
2022/10/13 21:39:37;;;;;;;15.70;10.60;;;22.10;67.30;;;;;;215014;1279;24225;-60
2022/10/13 21:44:43;;;;;;;17.60;11.30;;;22.10;67.30;;;;;;214901;1288;24369;-59
2022/10/13 21:49:52;;;;;;;16.20;10.90;;;22.10;67.20;;;;;;215043;1281;24352;-61
2022/10/13 21:54:57;;;;;;;17.50;11.10;;;22.10;67.10;;;;;;214857;1284;22458;-59
2022/10/13 22:00:07;;;;;;;16.70;11.50;;;22.10;68.00;;;;;;215013;1283;24266;-62
2022/10/13 22:05:16;;;;;;;20.20;11.70;;;22.00;67.20;;;;;;215005;1295;25527;-61
2022/10/13 22:10:23;;;;;;;17.60;11.40;;;22.00;67.10;;;;;;214975;1278;22659;-61
2022/10/13 22:15:26;;;;;;;13.40;9.70;;;22.10;67.10;;;;;;215036;1294;23708;-61
2022/10/13 22:20:34;;;;;;;18.00;11.30;;;22.00;67.00;;;;;;214949;1278;22475;-60
2022/10/13 22:25:44;;;;;;;16.70;10.30;;;22.00;67.00;;;;;;215067;1285;24171;-60
2022/10/13 22:30:56;;;;;;;15.90;11.00;;;22.00;67.10;;;;;;215004;1294;22605;-60
2022/10/13 22:36:25;;;;;;;19.00;11.40;;;22.00;67.00;;;;;;214924;1294;24282;-62
2022/10/13 22:41:34;;;;;;;17.30;12.00;;;21.90;67.10;;;;;;215110;1278;25279;-61
2022/10/13 22:46:48;;;;;;;15.30;10.30;;;21.90;67.30;;;;;;214985;1292;23851;-64
2022/10/13 22:51:52;;;;;;;17.00;11.20;;;21.90;67.50;;;;;;215167;1287;22479;-61
2022/10/13 22:56:55;;;;;;;16.80;10.90;;;21.80;67.50;;;;;;214879;1294;22695;-61
2022/10/13 23:01:59;;;;;;;17.40;11.30;;;21.80;67.40;;;;;;215106;1294;23834;-61
2022/10/13 23:07:03;;;;;;;16.60;10.60;;;21.80;67.40;;;;;;214992;1281;24237;-62
2022/10/13 23:12:06;;;;;;;18.00;11.10;;;21.80;67.20;;;;;;214999;1282;22465;-61
2022/10/13 23:17:10;;;;;;;15.70;11.40;;;21.80;68.00;;;;;;215022;1285;23243;-60
2022/10/13 23:22:14;;;;;;;15.90;10.30;;;21.80;67.50;;;;;;214687;1300;22470;-64
2022/10/13 23:27:18;;;;;;;21.30;11.30;;;21.80;67.90;;;;;;215102;1291;22470;-61
2022/10/13 23:32:22;;;;;;;14.20;10.10;;;21.70;67.80;;;;;;214998;1278;23152;-60
2022/10/13 23:37:25;;;;;;;24.30;11.50;;;21.70;67.70;;;;;;214803;1281;24245;-60
2022/10/13 23:42:30;;;;;;;23.10;11.40;;;21.70;67.90;;;;;;214868;1275;24199;-59
2022/10/13 23:47:33;;;;;;;20.40;11.70;;;21.70;67.70;;;;;;214664;1295;24247;-59
2022/10/13 23:52:37;;;;;;;16.00;10.90;;;21.60;67.80;;;;;;214877;1281;22484;-60
2022/10/13 23:57:44;;;;;;;16.80;11.00;;;21.60;67.80;;;;;;214980;1282;22577;-60
